Time;durP1;ratioP1;P1;durP2;ratioP2;P2;SDS_P1;SDS_P2;PMS_P1;PMS_P2;Temp;Humidity;BMP_temperature;BMP_pressure;BME280_temperature;BME280_humidity;BME280_pressure;Samples;Min_cycle;Max_cycle;Signal;HPM_P1;HPM_P2
2021/12/19 00:00:58;;;;;;;;;31.00;25.50;;;;;9.57;69.70;103102.22;4982246;28;45428;-59
2021/12/19 00:08:50;;;;;;;;;37.25;29.50;;;;;9.56;69.56;103095.06;4981910;28;45844;-57
2021/12/19 00:11:21;;;;;;;;;36.25;26.25;;;;;9.55;69.16;103095.06;4981932;28;45493;-59
2021/12/19 00:13:48;;;;;;;;;29.00;26.00;;;;;9.57;69.46;103101.31;4981542;28;45357;-59
2021/12/19 00:16:14;;;;;;;;;34.25;26.25;;;;;9.46;69.59;103075.47;4981871;28;45445;-61
2021/12/19 00:18:43;;;;;;;;;37.25;30.25;;;;;9.47;69.68;103087.97;4981507;28;46555;-59
2021/12/19 00:21:10;;;;;;;;;31.75;26.50;;;;;9.46;70.02;103077.25;4981613;28;45409;-60
2021/12/19 00:23:36;;;;;;;;;35.75;27.50;;;;;9.46;69.57;103069.22;4981808;28;45350;-59
2021/12/19 00:26:02;;;;;;;;;38.50;29.50;;;;;9.51;69.47;103066.53;4981729;28;45330;-59
2021/12/19 00:28:27;;;;;;;;;30.00;27.50;;;;;9.53;69.21;103067.44;4981443;28;46156;-59
2021/12/19 05:32:26;;;;;;;;;17.50;12.25;;;;;8.75;71.36;102903.63;1399451;26;46071;-74
2021/12/19 05:34:51;;;;;;;;;12.50;11.25;;;;;8.65;71.54;102890.28;4976212;28;45422;-74
2021/12/19 05:45:28;;;;;;;;;10.25;7.00;;;;;8.72;72.27;102900.06;4976640;28;45472;-76
2021/12/19 05:47:54;;;;;;;;;11.75;8.75;;;;;8.68;72.15;102889.34;4975748;28;45472;-74
2021/12/19 05:50:21;;;;;;;;;14.50;11.25;;;;;8.72;72.21;102902.72;4976426;28;45214;-76
2021/12/19 05:52:48;;;;;;;;;22.00;14.75;;;;;8.70;72.29;102896.50;4976282;28;47134;-76
2021/12/19 05:55:15;;;;;;;;;12.50;12.50;;;;;8.74;72.79;102889.34;4976268;28;45415;-76
2021/12/19 05:57:41;;;;;;;;;18.75;13.25;;;;;8.78;72.36;102898.25;4976028;28;45328;-75
2021/12/19 06:00:12;;;;;;;;;13.50;9.25;;;;;8.70;72.60;102885.78;4976306;28;45287;-75
2021/12/19 06:02:38;;;;;;;;;12.50;11.50;;;;;8.78;71.46;102895.56;4975996;28;45320;-78
2021/12/19 06:05:04;;;;;;;;;14.75;13.75;;;;;8.70;71.96;102882.22;4976243;28;45352;-76
2021/12/19 06:07:29;;;;;;;;;17.75;11.00;;;;;8.66;72.05;102885.81;4976025;28;45375;-75
2021/12/19 06:09:56;;;;;;;;;16.25;13.75;;;;;8.63;72.31;102891.19;4976093;28;45375;-74
2021/12/19 06:12:21;;;;;;;;;18.50;10.25;;;;;8.70;72.14;102896.50;4976199;28;45546;-77
2021/12/19 06:14:48;;;;;;;;;22.75;15.75;;;;;8.66;72.12;102896.53;4976065;28;45320;-76
2021/12/19 06:17:13;;;;;;;;;14.00;13.00;;;;;8.67;72.08;102890.28;4974788;28;45459;-76
2021/12/19 06:19:39;;;;;;;;;21.00;13.00;;;;;8.68;72.08;102881.34;4974712;28;46177;-76
2021/12/19 06:22:06;;;;;;;;;14.25;11.25;;;;;8.68;71.54;102879.56;4975135;28;48243;-76
2021/12/19 06:24:33;;;;;;;;;15.25;12.00;;;;;8.75;71.84;102895.59;4976862;28;45325;-75
2021/12/19 06:26:59;;;;;;;;;14.25;13.25;;;;;8.69;71.61;102876.00;4974215;28;45358;-74
2021/12/19 06:29:29;;;;;;;;;20.00;14.50;;;;;8.73;71.40;102879.56;4975845;28;45347;-76
2021/12/19 06:31:55;;;;;;;;;12.50;11.00;;;;;8.69;71.90;102884.00;4973913;28;46861;-76
2021/12/19 06:34:20;;;;;;;;;13.25;11.00;;;;;8.68;72.00;102887.56;4975298;28;45304;-77
2021/12/19 06:36:45;;;;;;;;;14.25;12.25;;;;;8.69;71.74;102876.00;4975127;28;45467;-76
2021/12/19 06:39:11;;;;;;;;;16.25;13.00;;;;;8.69;71.89;102892.03;4975446;28;45285;-76
2021/12/19 06:41:36;;;;;;;;;14.50;10.25;;;;;8.61;71.85;102872.47;4975056;28;45503;-76
2021/12/19 06:44:03;;;;;;;;;15.50;14.00;;;;;8.64;71.65;102875.13;4975630;28;45306;-76
2021/12/19 06:46:29;;;;;;;;;15.25;12.00;;;;;8.62;71.66;102882.25;4975167;28;45695;-76
2021/12/19 06:48:54;;;;;;;;;13.25;12.00;;;;;8.63;71.72;102885.81;4975525;28;45414;-75
2021/12/19 06:51:21;;;;;;;;;14.50;10.75;;;;;8.59;71.96;102873.38;4975269;28;45347;-76
2021/12/19 06:53:47;;;;;;;;;14.75;13.50;;;;;8.67;71.64;102875.13;4973647;28;45417;-75
2021/12/19 06:56:12;;;;;;;;;14.00;11.25;;;;;8.64;71.73;102880.47;4975342;28;45548;-76
2021/12/19 06:58:38;;;;;;;;;14.00;12.75;;;;;8.63;71.57;102877.81;4975247;28;45444;-76
2021/12/19 07:01:03;;;;;;;;;13.75;9.50;;;;;8.65;71.40;102876.03;4975591;28;45342;-75
2021/12/19 07:03:29;;;;;;;;;14.50;13.00;;;;;8.62;71.49;102884.94;4975382;28;45229;-75
2021/12/19 07:05:54;;;;;;;;;20.75;16.25;;;;;8.64;71.68;102890.28;4973762;28;45491;-75
2021/12/19 07:08:21;;;;;;;;;20.50;14.75;;;;;8.63;71.57;102896.53;4974966;28;45323;-76
2021/12/19 07:10:47;;;;;;;;;13.50;11.75;;;;;8.59;71.72;102894.78;4973854;28;48378;-74
2021/12/19 07:13:18;;;;;;;;;20.00;15.00;;;;;8.62;71.41;102906.31;4974723;28;45390;-76
2021/12/19 07:15:44;;;;;;;;;15.50;12.00;;;;;8.60;71.83;102892.06;4974790;28;45416;-75
2021/12/19 07:18:09;;;;;;;;;13.25;10.25;;;;;8.55;71.60;102880.50;4975458;28;45305;-75
2021/12/19 07:20:35;;;;;;;;;12.00;11.50;;;;;8.68;71.75;102900.06;4974471;28;45987;-75
2021/12/19 07:23:01;;;;;;;;;15.25;13.00;;;;;8.69;71.52;102893.81;4973790;28;45411;-75
2021/12/19 07:25:26;;;;;;;;;14.00;13.00;;;;;8.66;71.60;102885.81;4973632;28;45656;-75
2021/12/19 07:27:52;;;;;;;;;12.25;8.50;;;;;8.61;71.31;102871.56;4974909;28;45511;-76
2021/12/19 07:30:17;;;;;;;;;8.25;7.00;;;;;8.67;70.83;102891.19;4974694;28;46585;-76
2021/12/19 07:32:42;;;;;;;;;12.00;9.25;;;;;8.71;70.95;102887.56;4974782;28;45467;-76
2021/12/19 07:35:09;;;;;;;;;13.50;9.00;;;;;8.70;70.90;102875.09;4975388;28;45225;-74
2021/12/19 07:37:37;;;;;;;;;14.50;13.00;;;;;8.65;71.07;102873.34;4975433;28;45325;-76
2021/12/19 07:40:14;;;;;;;;;11.75;7.00;;;;;8.59;71.38;102865.38;4973740;28;46363;-76
2021/12/19 07:42:40;;;;;;;;;13.00;8.00;;;;;8.59;70.94;102868.91;4973192;28;45767;-76
2021/12/19 07:45:06;;;;;;;;;12.25;10.75;;;;;8.69;71.37;102877.78;4975019;28;45315;-74
2021/12/19 07:47:31;;;;;;;;;15.25;12.75;;;;;8.57;71.18;102861.78;4974673;28;45332;-75
2021/12/19 07:49:56;;;;;;;;;11.25;11.25;;;;;8.52;70.95;102848.44;4972972;28;47138;-75
2021/12/19 07:52:22;;;;;;;;;11.25;10.50;;;;;8.67;71.35;102885.81;4974849;28;45344;-75
2021/12/19 07:54:47;;;;;;;;;12.25;8.75;;;;;8.62;70.73;102884.03;4975284;28;45506;-74
2021/12/19 07:57:12;;;;;;;;;12.00;10.00;;;;;8.59;70.97;102886.75;4976433;28;45282;-75
2021/12/19 07:59:38;;;;;;;;;11.00;9.00;;;;;8.59;71.21;102892.09;4977899;28;46383;-76
2021/12/19 08:02:04;;;;;;;;;9.50;9.00;;;;;8.55;71.06;102885.84;4978028;28;45435;-76
2021/12/19 08:04:30;;;;;;;;;7.25;6.25;;;;;8.61;71.89;102883.16;4978001;28;45337;-75
2021/12/19 08:06:56;;;;;;;;;12.25;9.00;;;;;8.52;71.10;102868.94;4976698;28;45585;-75
2021/12/19 08:09:34;;;;;;;;;12.00;9.50;;;;;8.63;71.29;102886.72;4977668;28;45422;-75
2021/12/19 08:12:00;;;;;;;;;11.25;8.50;;;;;8.66;71.02;102889.41;4976291;28;45942;-75
2021/12/19 08:14:25;;;;;;;;;16.50;10.25;;;;;8.61;71.25;102879.59;4978707;28;45615;-73
2021/12/19 08:16:50;;;;;;;;;15.50;11.75;;;;;8.62;70.81;102884.03;4977744;28;46378;-73
2021/12/19 08:19:16;;;;;;;;;14.75;9.50;;;;;8.64;71.03;102896.53;4978599;28;45525;-71
2021/12/19 08:21:41;;;;;;;;;8.50;8.25;;;;;8.59;70.92;102882.25;4977521;28;45399;-76
2021/12/19 08:24:10;;;;;;;;;13.25;11.00;;;;;8.68;70.70;102889.34;4978312;28;45354;-76
2021/12/19 08:26:38;;;;;;;;;12.25;11.00;;;;;8.65;70.94;102886.72;4977402;28;45482;-78
2021/12/19 08:29:04;;;;;;;;;8.75;6.50;;;;;8.66;70.85;102886.72;4977906;28;45463;-76
2021/12/19 08:31:29;;;;;;;;;16.50;13.75;;;;;8.66;70.77;102876.03;4977900;28;45586;-75
2021/12/19 08:33:55;;;;;;;;;12.50;11.50;;;;;8.68;70.50;102870.63;4977643;28;45481;-75
2021/12/19 08:36:20;;;;;;;;;15.50;12.00;;;;;8.67;70.57;102866.22;4977086;28;45298;-76
2021/12/19 08:38:47;;;;;;;;;10.75;9.00;;;;;8.77;69.85;102875.06;4977386;28;46361;-74
2021/12/19 08:41:13;;;;;;;;;9.50;8.75;;;;;8.75;70.49;102867.06;4977383;28;45542;-75
2021/12/19 08:43:39;;;;;;;;;11.50;9.00;;;;;8.79;70.31;102863.47;4977405;28;45345;-75
2021/12/19 08:46:06;;;;;;;;;18.25;10.50;;;;;8.75;70.23;102866.19;4976963;28;45692;-76
2021/12/19 08:48:32;;;;;;;;;13.75;9.75;;;;;8.74;69.67;102865.28;4975810;28;45491;-73
2021/12/19 08:50:57;;;;;;;;;13.50;10.00;;;;;8.79;69.65;102878.63;4975175;28;45537;-74
2021/12/19 08:53:23;;;;;;;;;14.50;9.25;;;;;8.73;69.42;102875.09;4977237;28;45337;-74
2021/12/19 08:55:48;;;;;;;;;10.50;9.00;;;;;8.58;69.41;102848.44;4975509;28;46065;-75
2021/12/19 08:58:13;;;;;;;;;9.00;6.75;;;;;8.70;69.63;102866.19;4976233;28;46543;-74
2021/12/19 09:00:39;;;;;;;;;13.00;10.00;;;;;8.65;69.20;102865.31;4977057;28;45420;-77
2021/12/19 09:03:08;;;;;;;;;11.75;11.50;;;;;8.63;69.36;102861.75;4977813;28;45381;-78
2021/12/19 09:05:34;;;;;;;;;11.00;8.00;;;;;8.54;69.39;102852.00;4975611;28;45988;-76
2021/12/19 09:07:59;;;;;;;;;9.00;8.00;;;;;8.67;69.57;102882.25;4977441;28;46028;-79
2021/12/19 09:10:26;;;;;;;;;10.75;10.25;;;;;8.48;70.28;102844.00;4976698;28;45681;-79
2021/12/19 09:12:52;;;;;;;;;14.00;11.75;;;;;8.71;69.63;102884.00;4975488;28;45475;-79
2021/12/19 09:15:18;;;;;;;;;12.00;12.00;;;;;8.59;69.87;102868.03;4974873;28;45401;-79
2021/12/19 09:17:44;;;;;;;;;14.00;11.00;;;;;8.66;69.87;102872.47;4975571;28;45450;-79
2021/12/19 09:20:10;;;;;;;;;20.00;13.00;;;;;8.71;69.68;102889.34;4976172;28;45307;-80
2021/12/19 09:22:36;;;;;;;;;14.00;13.75;;;;;8.68;69.73;102881.34;4977400;28;45365;-80
2021/12/19 09:25:03;;;;;;;;;15.25;10.75;;;;;8.70;69.93;102882.22;4979832;28;45270;-79
2021/12/19 09:27:29;;;;;;;;;12.00;9.50;;;;;8.51;70.26;102857.34;4978295;28;45706;-80
2021/12/19 09:29:54;;;;;;;;;11.00;8.75;;;;;8.49;70.09;102851.13;4977411;28;45320;-82
2021/12/19 09:32:20;;;;;;;;;14.50;9.75;;;;;8.72;70.13;102881.34;4977447;28;45466;-76
2021/12/19 09:34:46;;;;;;;;;11.75;9.25;;;;;8.76;70.03;102879.56;4976709;28;45339;-76
2021/12/19 09:37:12;;;;;;;;;13.75;10.75;;;;;8.79;69.74;102876.84;4976407;28;45514;-72
2021/12/19 09:39:38;;;;;;;;;14.25;10.50;;;;;8.83;69.93;102875.06;4974913;28;45470;-75
2021/12/19 09:42:10;;;;;;;;;8.25;7.00;;;;;8.82;69.23;102875.94;4976457;28;45377;-75
2021/12/19 09:44:37;;;;;;;;;10.00;9.75;;;;;8.81;69.72;102880.41;4976290;28;45315;-73
2021/12/19 09:47:04;;;;;;;;;15.00;12.75;;;;;8.82;69.32;102874.16;4976438;28;46548;-74
2021/12/19 09:49:30;;;;;;;;;11.25;10.25;;;;;8.83;69.05;102880.41;4976357;28;45265;-80
2021/12/19 09:51:55;;;;;;;;;14.75;11.50;;;;;8.78;69.55;102877.75;4976728;28;45130;-74
2021/12/19 09:54:20;;;;;;;;;15.25;15.00;;;;;8.61;69.73;102845.72;4976323;28;45507;-76
2021/12/19 09:56:46;;;;;;;;;19.00;15.00;;;;;8.80;69.95;102878.63;4976370;28;46010;-75
2021/12/19 09:59:17;;;;;;;;;18.00;15.00;;;;;8.63;69.71;102840.38;4976124;28;45325;-77
2021/12/19 10:01:42;;;;;;;;;15.50;12.50;;;;;8.80;69.72;102869.72;4975103;28;45392;-76
2021/12/19 10:04:36;;;;;;;;;19.00;15.00;;;;;8.82;69.77;102870.59;4976539;28;45534;-76
2021/12/19 10:07:03;;;;;;;;;21.25;16.50;;;;;8.80;69.49;102856.34;4976815;28;45959;-76
2021/12/19 10:09:29;;;;;;;;;20.50;14.25;;;;;8.76;69.68;102851.91;4976883;28;45319;-75
2021/12/19 10:14:24;;;;;;;;;28.75;15.00;;;;;8.79;69.80;102865.25;4975855;28;45352;-76
2021/12/19 10:16:49;;;;;;;;;15.25;14.25;;;;;8.79;69.31;102849.22;4976058;28;45474;-77
2021/12/19 10:19:15;;;;;;;;;12.00;10.50;;;;;8.69;69.10;102841.22;4976210;28;45372;-77
2021/12/19 10:21:40;;;;;;;;;12.25;11.75;;;;;8.76;69.06;102844.78;4976557;28;45397;-75
2021/12/19 10:24:06;;;;;;;;;16.00;12.00;;;;;8.74;69.10;102830.53;4976065;28;45599;-76
2021/12/19 10:26:42;;;;;;;;;14.25;12.00;;;;;8.71;68.72;102828.75;4975522;28;46186;-77
2021/12/19 10:29:10;;;;;;;;;12.75;12.00;;;;;8.80;68.65;102841.19;4976156;28;45380;-75
2021/12/19 10:31:36;;;;;;;;;13.75;8.75;;;;;8.85;69.05;102844.72;4974311;28;45472;-73
2021/12/19 10:34:19;;;;;;;;;17.75;15.50;;;;;8.86;68.97;102832.22;4975651;28;45538;-76
2021/12/19 10:36:44;;;;;;;;;14.00;12.25;;;;;8.79;69.02;102809.97;4976124;28;45312;-80
2021/12/19 10:39:16;;;;;;;;;18.75;17.00;;;;;8.81;68.90;102818.91;4976292;28;45507;-78
2021/12/19 10:41:42;;;;;;;;;23.75;15.25;;;;;8.72;69.04;102803.78;4975325;28;45492;-77
2021/12/19 10:45:29;;;;;;;;;17.50;15.25;;;;;8.90;69.11;102834.91;4975840;28;45339;-79
2021/12/19 10:46:54;;;;;;;;;22.00;17.25;;;;;8.97;69.21;102843.75;4978783;28;46022;-79
2021/12/19 10:49:24;;;;;;;;;22.25;15.75;;;;;8.98;69.05;102845.53;4982798;28;45483;-79
2021/12/19 10:51:50;;;;;;;;;20.75;15.00;;;;;8.89;68.54;102824.19;4976223;28;45270;-78
2021/12/19 10:54:16;;;;;;;;;15.25;13.25;;;;;8.92;68.67;102824.19;4975832;28;45477;-79
2021/12/19 10:56:41;;;;;;;;;25.50;17.25;;;;;8.92;68.44;102833.09;4975361;28;45489;-79
2021/12/19 10:59:10;;;;;;;;;20.00;14.75;;;;;8.83;67.96;102801.06;4974184;28;45348;-79
2021/12/19 11:01:47;;;;;;;;;24.50;16.25;;;;;8.99;67.13;102826.81;4975660;28;45306;-78
2021/12/19 11:04:17;;;;;;;;;15.25;12.00;;;;;9.02;67.47;102815.19;4974632;28;45296;-77
2021/12/19 11:06:50;;;;;;;;;23.75;16.00;;;;;9.04;66.95;102822.31;4974044;28;46583;-77
2021/12/19 11:09:29;;;;;;;;;15.25;13.25;;;;;9.05;67.20;102818.75;4975140;28;45595;-78
2021/12/19 11:11:56;;;;;;;;;18.25;18.00;;;;;9.02;66.80;102821.44;4975290;28;45273;-77
2021/12/19 11:14:28;;;;;;;;;17.75;15.00;;;;;9.02;66.87;102818.75;4976414;28;45976;-73
2021/12/19 11:16:58;;;;;;;;;23.50;15.00;;;;;9.01;66.91;102818.78;4973759;28;45566;-78
2021/12/19 11:19:25;;;;;;;;;14.50;14.25;;;;;8.82;66.94;102783.22;4970712;28;45473;-79
2021/12/19 11:21:51;;;;;;;;;17.25;14.25;;;;;8.80;66.46;102789.47;4973417;28;45435;-77
2021/12/19 11:24:19;;;;;;;;;15.50;12.75;;;;;8.77;66.46;102786.81;4974538;28;45534;-76
2021/12/19 11:26:48;;;;;;;;;15.25;10.00;;;;;8.75;66.44;102784.16;4978973;28;45513;-79
2021/12/19 11:29:15;;;;;;;;;18.25;16.50;;;;;8.85;66.55;102784.97;4976234;28;45353;-77
2021/12/19 11:31:46;;;;;;;;;14.25;11.50;;;;;8.80;66.61;102757.38;4973681;28;45345;-78
2021/12/19 11:34:40;;;;;;;;;16.25;13.25;;;;;8.85;66.42;102764.47;4974065;28;45404;-78
2021/12/19 11:37:05;;;;;;;;;14.25;12.75;;;;;9.00;66.00;102779.56;4962033;28;46698;-78
2021/12/19 11:39:34;;;;;;;;;19.00;16.50;;;;;8.99;66.21;102773.31;4973455;28;45289;-78
2021/12/19 11:42:13;;;;;;;;;23.25;15.75;;;;;9.03;65.64;102779.50;4972928;28;45810;-76
2021/12/19 11:47:56;;;;;;;;;17.50;14.00;;;;;9.08;65.17;102767.00;4974066;28;45409;-77
2021/12/19 11:50:32;;;;;;;;;15.75;14.25;;;;;9.09;65.99;102756.28;4972081;28;45370;-79
2021/12/19 11:52:57;;;;;;;;;22.25;15.75;;;;;9.12;65.55;102755.38;4973188;28;45376;-76
2021/12/19 11:55:25;;;;;;;;;21.75;13.00;;;;;9.17;65.57;102750.00;4973140;28;45459;-77
2021/12/19 11:58:08;;;;;;;;;22.25;15.00;;;;;9.09;65.78;102729.53;4973929;28;46843;-81
2021/12/19 12:00:36;;;;;;;;;24.25;16.25;;;;;9.28;65.28;102740.94;4974686;28;45320;-75
2021/12/19 12:03:13;;;;;;;;;14.00;13.25;;;;;9.34;65.73;102748.06;4977392;28;45541;-76
2021/12/19 12:05:40;;;;;;;;;17.50;14.75;;;;;9.37;65.21;102738.19;4976013;28;45442;-77
2021/12/19 12:08:05;;;;;;;;;20.25;16.00;;;;;9.38;65.35;102737.28;4975435;28;45431;-75
2021/12/19 12:13:20;;;;;;;;;19.50;18.25;;;;;9.42;65.50;102731.03;4974357;28;45201;-75
2021/12/19 12:15:46;;;;;;;;;20.25;16.75;;;;;9.43;65.72;102723.88;4974329;28;45409;-75
2021/12/19 12:18:35;;;;;;;;;21.50;16.75;;;;;9.41;65.75;102728.38;4974587;28;45527;-74
2021/12/19 12:21:20;;;;;;;;;31.00;21.00;;;;;9.43;65.26;102715.84;4972939;28;45569;-75
2021/12/19 12:24:06;;;;;;;;;25.25;18.75;;;;;9.43;65.32;102715.84;4972932;28;45503;-72
2021/12/19 12:26:41;;;;;;;;;19.25;18.25;;;;;9.28;65.57;102690.09;4972619;28;45966;-70
2021/12/19 12:29:08;;;;;;;;;90.33;60.33;;;;;9.44;65.91;102702.44;4974256;28;46503;-71
2021/12/19 12:31:35;;;;;;;;;41.25;34.50;;;;;9.46;66.08;102714.03;4973825;28;45365;-72
2021/12/19 12:34:01;;;;;;;;;31.00;23.25;;;;;9.33;65.29;102688.28;4974313;28;45447;-73
2021/12/19 12:36:26;;;;;;;;;66.50;52.25;;;;;9.33;66.17;102693.63;4973532;28;45479;-72
2021/12/19 12:38:54;;;;;;;;;38.00;29.00;;;;;9.38;66.67;102688.22;4974271;28;45483;-74
2021/12/19 12:44:11;;;;;;;;;66.00;48.00;;;;;9.36;67.07;102688.22;4977942;28;45289;-72
2021/12/19 12:46:37;;;;;;;;;21.75;20.75;;;;;9.45;66.85;102684.56;4975395;28;47896;-75
2021/12/19 12:49:02;;;;;;;;;23.50;21.00;;;;;9.45;66.57;102680.13;4977083;28;46116;-70
2021/12/19 12:51:36;;;;;;;;;25.00;19.50;;;;;9.45;66.49;102671.19;4977015;28;45345;-73
2021/12/19 12:54:12;;;;;;;;;23.25;21.75;;;;;9.43;66.55;102668.56;4977590;28;45398;-73
2021/12/19 12:56:46;;;;;;;;;31.50;25.75;;;;;9.44;67.32;102656.91;4977213;28;45317;-76
2021/12/19 12:59:14;;;;;;;;;19.00;15.75;;;;;9.51;66.60;102662.22;4976222;28;46811;-78
2021/12/19 13:01:44;;;;;;;;;23.00;20.00;;;;;9.43;66.74;102652.50;4978091;28;46064;-78
2021/12/19 13:04:14;;;;;;;;;26.00;23.75;;;;;9.49;66.82;102660.44;4977593;28;45374;-80
2021/12/19 13:06:39;;;;;;;;;31.75;20.25;;;;;9.51;66.86;102655.09;4975722;28;46246;-84
2021/12/19 13:09:28;;;;;;;;;23.50;19.25;;;;;9.41;66.88;102635.56;4975161;28;47216;-78
2021/12/19 13:12:16;;;;;;;;;18.50;16.75;;;;;9.51;66.47;102651.53;4975616;28;45386;-81
2021/12/19 13:14:49;;;;;;;;;23.75;19.50;;;;;9.54;66.60;102641.66;4977428;28;45277;-78
2021/12/19 13:17:35;;;;;;;;;19.50;17.75;;;;;9.37;66.54;102614.16;4978203;28;45194;-77
2021/12/19 13:20:08;;;;;;;;;20.00;18.50;;;;;9.49;66.86;102644.38;4979888;28;48589;-79
2021/12/19 13:22:49;;;;;;;;;26.50;19.75;;;;;9.28;66.59;102604.44;4982362;28;45566;-83
2021/12/19 13:25:25;;;;;;;;;29.50;19.50;;;;;9.46;66.85;102639.06;4978167;28;45277;-78
2021/12/19 13:28:00;;;;;;;;;22.00;17.50;;;;;9.41;67.29;102613.25;4978175;28;45527;-80
2021/12/19 13:30:32;;;;;;;;;25.25;19.25;;;;;9.52;68.10;102629.19;4974914;28;45974;-76
2021/12/19 13:33:00;;;;;;;;;23.75;18.75;;;;;9.61;68.18;102624.59;4976276;28;45490;-78
2021/12/19 13:35:37;;;;;;;;;27.75;20.25;;;;;9.67;67.22;102620.97;4976953;28;45496;-77
2021/12/19 13:38:05;;;;;;;;;25.25;22.00;;;;;9.73;67.66;102621.78;4976518;28;45408;-79
2021/12/19 13:40:34;;;;;;;;;19.00;17.25;;;;;9.71;67.11;102612.88;4976387;28;45511;-79
2021/12/19 13:43:04;;;;;;;;;19.50;16.00;;;;;9.77;67.09;102606.56;4972928;28;46634;-77
2021/12/19 13:45:32;;;;;;;;;24.75;17.00;;;;;9.75;66.71;102603.03;4962709;28;45518;-77
2021/12/19 13:48:01;;;;;;;;;25.75;23.25;;;;;9.68;67.17;102598.66;4979573;28;45378;-77
2021/12/19 13:50:29;;;;;;;;;27.00;23.00;;;;;9.56;67.62;102590.75;4977290;28;46229;-78
2021/12/19 13:52:54;;;;;;;;;27.00;21.00;;;;;9.61;67.57;102600.50;4970847;28;45502;-77
2021/12/19 13:55:20;;;;;;;;;23.25;20.50;;;;;9.61;67.44;102597.81;4976490;28;45625;-78
2021/12/19 13:57:46;;;;;;;;;24.25;20.00;;;;;9.56;67.78;102586.28;4977569;28;45611;-77
2021/12/19 14:00:34;;;;;;;;;17.75;14.00;;;;;9.59;67.84;102586.25;4976791;28;47082;-78
2021/12/19 14:02:59;;;;;;;;;23.75;18.25;;;;;9.58;67.61;102580.94;4972830;28;45417;-78
2021/12/19 14:05:30;;;;;;;;;16.25;14.25;;;;;9.34;67.99;102548.19;4976549;28;45401;-79
2021/12/19 14:07:55;;;;;;;;;25.00;21.00;;;;;9.48;68.16;102585.50;4976501;28;45535;-79
2021/12/19 14:10:21;;;;;;;;;20.75;16.00;;;;;9.40;68.39;102563.28;4974474;28;47736;-80
2021/12/19 14:13:06;;;;;;;;;15.75;14.00;;;;;9.22;68.52;102529.59;4974543;28;45931;-80
2021/12/19 14:15:33;;;;;;;;;15.75;15.75;;;;;9.41;68.89;102571.31;4976092;28;45403;-79
2021/12/19 14:17:59;;;;;;;;;21.75;18.50;;;;;9.31;68.72;102537.53;4971064;28;46048;-79
2021/12/19 14:20:37;;;;;;;;;13.75;12.50;;;;;9.49;68.73;102565.84;4974240;28;45555;-78
2021/12/19 14:23:20;;;;;;;;;14.00;9.00;;;;;9.49;68.36;102572.09;4977700;28;45183;-80
2021/12/19 14:25:46;;;;;;;;;17.50;14.00;;;;;9.31;68.72;102537.53;4966106;28;45341;-80
2021/12/19 14:28:29;;;;;;;;;11.75;11.00;;;;;9.47;68.53;102564.97;4975171;28;45387;-78
2021/12/19 14:31:01;;;;;;;;;17.25;11.50;;;;;9.42;68.16;102543.63;4976449;28;45431;-78
2021/12/19 14:33:34;;;;;;;;;18.00;13.00;;;;;9.47;68.32;102556.94;4975111;28;46058;-77
2021/12/19 14:36:00;;;;;;;;;10.50;8.75;;;;;9.43;68.37;102558.81;4976739;28;45503;-78
2021/12/19 14:38:26;;;;;;;;;18.50;11.75;;;;;9.37;68.30;102553.50;4978458;28;45537;-78
2021/12/19 14:40:58;;;;;;;;;15.00;12.50;;;;;9.30;68.18;102533.06;4977810;28;45412;-77
2021/12/19 14:43:26;;;;;;;;;16.00;14.00;;;;;9.42;68.88;102562.38;4973435;28;45496;-76
2021/12/19 14:45:57;;;;;;;;;15.50;13.25;;;;;9.34;68.62;102558.03;4975915;28;45744;-75
2021/12/19 14:48:36;;;;;;;;;11.25;10.25;;;;;9.40;69.35;102564.19;4976046;28;45249;-80
2021/12/19 14:51:09;;;;;;;;;14.25;11.25;;;;;9.35;69.34;102552.66;4975873;28;46737;-77
2021/12/19 14:53:37;;;;;;;;;20.25;14.25;;;;;9.35;69.63;102558.00;4973651;28;45234;-77
2021/12/19 14:56:24;;;;;;;;;23.25;16.25;;;;;9.37;69.39;102555.28;4974516;28;45341;-75
2021/12/19 14:59:01;;;;;;;;;18.75;17.00;;;;;9.29;69.95;102544.69;4974049;28;47179;-78
2021/12/19 15:01:33;;;;;;;;;18.50;17.00;;;;;9.30;69.62;102549.13;4975395;28;45497;-76
2021/12/19 15:04:03;;;;;;;;;14.25;13.25;;;;;9.11;69.32;102504.75;4975177;28;45447;-76
2021/12/19 15:06:36;;;;;;;;;18.00;15.50;;;;;9.37;69.91;102552.59;4975954;28;45336;-78
2021/12/19 15:09:03;;;;;;;;;15.50;10.25;;;;;9.34;69.48;102544.63;4974257;28;47238;-77
2021/12/19 15:11:29;;;;;;;;;14.75;13.50;;;;;9.36;69.39;102554.41;4976291;28;45368;-81
2021/12/19 15:13:54;;;;;;;;;13.25;12.00;;;;;9.34;68.83;102548.19;4976587;28;45327;-79
2021/12/19 15:16:20;;;;;;;;;12.75;10.00;;;;;9.20;69.12;102528.72;4976695;28;45294;-78
2021/12/19 15:18:46;;;;;;;;;9.75;9.75;;;;;9.29;69.51;102546.47;4979638;28;45526;-78
2021/12/19 15:21:12;;;;;;;;;14.00;11.00;;;;;9.28;69.13;102533.97;4975172;28;45407;-78
2021/12/19 15:23:41;;;;;;;;;11.50;9.00;;;;;9.28;69.40;102542.00;4975297;28;45356;-78
2021/12/19 15:26:14;;;;;;;;;11.50;9.75;;;;;9.27;69.52;102537.59;4975421;28;45232;-78
2021/12/19 15:28:41;;;;;;;;;17.00;10.25;;;;;9.21;69.47;102525.16;4973334;28;46291;-76
2021/12/19 15:31:06;;;;;;;;;14.25;10.25;;;;;9.27;69.44;102537.59;4975400;28;46647;-81
2021/12/19 15:33:33;;;;;;;;;9.50;9.50;;;;;9.25;69.44;102526.00;4973514;28;45436;-82
2021/12/19 15:35:59;;;;;;;;;13.25;10.00;;;;;9.04;68.77;102487.00;4973867;28;45402;-83
2021/12/19 15:38:24;;;;;;;;;15.00;11.75;;;;;9.14;68.96;102503.84;4986540;28;45810;-84
2021/12/19 15:40:49;;;;;;;;;8.75;8.75;;;;;9.16;68.43;102502.03;4979592;28;47031;-80
2021/12/19 15:43:15;;;;;;;;;8.75;8.00;;;;;9.23;68.67;102515.31;4975071;28;45500;-81
2021/12/19 15:45:40;;;;;;;;;9.25;8.00;;;;;8.97;68.01;102474.59;4979796;28;45546;-84
2021/12/19 15:48:07;;;;;;;;;11.25;8.00;;;;;9.01;68.42;102485.28;4974640;28;47297;-81
2021/12/19 15:50:32;;;;;;;;;10.00;8.75;;;;;8.88;69.02;102459.56;4975770;28;46387;-82
2021/12/19 15:52:58;;;;;;;;;12.25;9.25;;;;;9.18;68.92;102517.19;4976803;28;45518;-81
2021/12/19 15:55:24;;;;;;;;;10.75;9.00;;;;;9.24;68.95;102529.59;4980228;28;45352;-79
2021/12/19 15:57:49;;;;;;;;;13.00;11.00;;;;;9.12;69.27;102501.16;4978374;28;45485;-79
2021/12/19 16:00:18;;;;;;;;;15.25;9.25;;;;;9.05;69.25;102496.81;4974014;28;46043;-79
2021/12/19 16:02:45;;;;;;;;;13.25;12.25;;;;;9.22;69.09;102528.72;4975137;28;45260;-80
2021/12/19 16:05:12;;;;;;;;;14.00;13.50;;;;;9.08;69.70;102496.78;4974170;28;45537;-76
2021/12/19 16:07:37;;;;;;;;;13.25;11.00;;;;;9.08;70.58;102491.44;4974532;28;46560;-79
2021/12/19 16:10:06;;;;;;;;;16.00;13.00;;;;;9.27;69.26;102524.22;4973445;28;46171;-75
2021/12/19 16:12:31;;;;;;;;;15.00;14.00;;;;;9.17;69.55;102499.34;4975023;28;45234;-78
2021/12/19 16:15:00;;;;;;;;;15.00;11.75;;;;;9.03;69.88;102474.53;4974889;28;45348;-84
2021/12/19 16:17:26;;;;;;;;;14.25;12.00;;;;;9.19;69.99;102502.88;4976080;28;46310;-85
2021/12/19 16:19:52;;;;;;;;;15.75;13.50;;;;;9.18;69.76;102510.94;4976645;28;48308;-78
2021/12/19 16:22:17;;;;;;;;;15.75;15.25;;;;;9.08;69.96;102497.66;4977987;28;45480;-79
2021/12/19 16:24:43;;;;;;;;;19.75;12.50;;;;;9.17;69.98;102519.88;4978770;28;45535;-82
2021/12/19 16:27:08;;;;;;;;;23.00;14.75;;;;;9.20;70.18;102522.47;4976378;28;45768;-80
2021/12/19 16:29:35;;;;;;;;;19.75;16.00;;;;;9.10;70.09;102514.56;4978203;28;45694;-74
2021/12/19 16:32:01;;;;;;;;;17.25;16.00;;;;;9.11;69.98;102512.78;4978052;28;45417;-77
2021/12/19 16:34:28;;;;;;;;;13.75;10.00;;;;;9.13;69.50;102518.13;4977448;28;45260;-74
2021/12/19 16:36:54;;;;;;;;;15.75;13.50;;;;;9.11;69.84;102518.13;4977758;28;45713;-76
2021/12/19 16:39:23;;;;;;;;;11.75;10.25;;;;;9.09;69.06;102523.53;4977400;28;45550;-75
2021/12/19 16:42:00;;;;;;;;;16.25;13.00;;;;;9.04;69.22;102516.44;4977320;28;45316;-76
2021/12/19 16:44:25;;;;;;;;;8.50;7.25;;;;;9.10;69.58;102527.94;4977870;28;45335;-75
2021/12/19 16:46:51;;;;;;;;;13.75;12.50;;;;;9.04;69.27;102528.03;4977465;28;45324;-74
2021/12/19 16:49:17;;;;;;;;;13.50;8.75;;;;;9.00;69.34;102520.94;4976135;28;48340;-75
2021/12/19 16:51:42;;;;;;;;;18.50;9.75;;;;;8.94;68.94;102510.28;4976055;28;46786;-78